Time;durP1;ratioP1;P1;durP2;ratioP2;P2;SDS_P1;SDS_P2;PMS_P1;PMS_P2;Temp;Humidity;BMP_temperature;BMP_pressure;BME280_temperature;BME280_humidity;BME280_pressure;Samples;Min_cycle;Max_cycle;Signal;HPM_P1;HPM_P2
2023/12/16 00:00:57;;;;;;;;;11.75;11.50;;;;;14.58;100.00;103522.06;2088210;28;44917;-60
2023/12/16 00:01:58;;;;;;;;;19.00;17.00;;;;;14.59;100.00;103522.97;2088259;28;44871;-61
2023/12/16 00:02:58;;;;;;;;;17.25;15.50;;;;;14.57;100.00;103514.94;2085609;28;45015;-58
2023/12/16 00:03:58;;;;;;;;;17.25;16.50;;;;;14.56;100.00;103518.50;2088722;28;45256;-61
2023/12/16 00:04:59;;;;;;;;;18.50;18.50;;;;;14.56;100.00;103522.94;2088341;28;45748;-60
2023/12/16 00:06:00;;;;;;;;;16.00;16.00;;;;;14.55;100.00;103514.03;2086439;28;44921;-60
2023/12/16 00:07:00;;;;;;;;;12.00;11.25;;;;;14.56;100.00;103517.59;2086682;28;44942;-62
2023/12/16 00:08:00;;;;;;;;;16.25;15.25;;;;;14.55;100.00;103511.38;2087741;28;44884;-61
2023/12/16 00:09:00;;;;;;;;;13.00;11.50;;;;;14.57;100.00;103517.59;2086608;28;44896;-59
2023/12/16 00:10:01;;;;;;;;;11.67;11.00;;;;;14.57;100.00;103514.94;2087318;28;44994;-59
2023/12/16 00:11:02;;;;;;;;;16.00;15.00;;;;;14.59;100.00;103525.63;2085141;28;45154;-57
2023/12/16 00:12:03;;;;;;;;;13.50;12.25;;;;;14.61;100.00;103518.50;2088207;28;44941;-59
2023/12/16 00:13:03;;;;;;;;;20.00;16.33;;;;;14.61;100.00;103522.09;2088360;28;44944;-62
2023/12/16 00:14:03;;;;;;;;;14.33;13.00;;;;;14.64;100.00;103526.56;2087560;28;45286;-61
2023/12/16 00:15:05;;;;;;;;;14.67;14.67;;;;;14.64;100.00;103527.47;2088793;28;44908;-61
2023/12/16 00:16:05;;;;;;;;;14.50;13.50;;;;;14.65;100.00;103523.91;2088889;28;44881;-59
2023/12/16 00:17:06;;;;;;;;;15.00;14.33;;;;;14.64;100.00;103529.25;2087684;28;45071;-59
2023/12/16 00:18:06;;;;;;;;;16.33;13.33;;;;;14.63;100.00;103524.78;2087892;28;44854;-58
2023/12/16 00:19:06;;;;;;;;;16.67;14.67;;;;;14.59;100.00;103522.97;2088263;28;44976;-59
2023/12/16 00:20:07;;;;;;;;;18.33;17.33;;;;;14.58;100.00;103521.16;2087986;28;44890;-60
2023/12/16 00:21:08;;;;;;;;;14.33;14.00;;;;;14.57;100.00;103524.72;2087933;28;44924;-59
2023/12/16 00:22:08;;;;;;;;;15.00;14.00;;;;;14.56;100.00;103522.94;2088758;28;45005;-60
2023/12/16 00:23:08;;;;;;;;;20.00;18.50;;;;;14.55;100.00;103523.84;2087472;28;44967;-61
2023/12/16 00:24:09;;;;;;;;;16.75;15.00;;;;;14.55;100.00;103521.16;2086945;28;44960;-58
2023/12/16 00:25:09;;;;;;;;;16.33;15.33;;;;;14.57;100.00;103514.94;2088050;28;44899;-61
2023/12/16 00:26:09;;;;;;;;;18.67;15.00;;;;;14.58;100.00;103513.16;2087321;28;45137;-59
2023/12/16 00:27:09;;;;;;;;;17.33;17.00;;;;;14.57;100.00;103516.72;2087313;28;44956;-60
2023/12/16 00:28:10;;;;;;;;;14.67;14.00;;;;;14.56;100.00;103514.94;2086526;28;45656;-60
2023/12/16 00:29:11;;;;;;;;;15.00;15.00;;;;;14.55;100.00;103519.38;2088674;28;45065;-59
2023/12/16 00:30:11;;;;;;;;;17.67;15.33;;;;;14.54;100.00;103516.69;2087228;28;45000;-61
2023/12/16 00:31:12;;;;;;;;;15.67;13.67;;;;;14.54;100.00;103514.94;2088098;28;44901;-59
2023/12/16 00:32:12;;;;;;;;;17.25;16.00;;;;;14.53;100.00;103515.81;2087487;28;44871;-59
2023/12/16 00:33:12;;;;;;;;;16.75;15.75;;;;;14.52;100.00;103516.69;2088056;28;45500;-59
2023/12/16 00:34:13;;;;;;;;;12.67;12.67;;;;;14.53;100.00;103518.47;2088060;28;44832;-60
2023/12/16 00:35:13;;;;;;;;;15.75;15.00;;;;;14.52;100.00;103519.38;2087916;28;45486;-61
2023/12/16 00:36:14;;;;;;;;;14.33;14.00;;;;;14.52;100.00;103515.81;2088121;28;45085;-60
2023/12/16 00:37:14;;;;;;;;;14.00;13.67;;;;;14.52;100.00;103519.38;2087871;28;44846;-60
2023/12/16 00:38:14;;;;;;;;;13.00;13.00;;;;;14.52;100.00;103519.38;2087308;28;44786;-62
2023/12/16 00:39:15;;;;;;;;;17.50;15.75;;;;;14.53;100.00;103520.25;2086563;28;44865;-59
2023/12/16 00:40:15;;;;;;;;;16.50;14.50;;;;;14.53;100.00;103518.47;2088395;28;45082;-58
2023/12/16 00:41:15;;;;;;;;;15.75;14.00;;;;;14.55;100.00;103516.72;2088052;28;45205;-60
2023/12/16 00:42:16;;;;;;;;;17.25;14.75;;;;;14.56;100.00;103518.50;2087484;28;44984;-60
2023/12/16 00:43:16;;;;;;;;;13.25;13.25;;;;;14.55;100.00;103519.38;2087927;28;44992;-61
2023/12/16 00:44:16;;;;;;;;;15.75;14.25;;;;;14.55;100.00;103513.16;2088245;28;44903;-58
2023/12/16 00:45:17;;;;;;;;;18.25;16.00;;;;;14.54;100.00;103509.56;2088331;28;45086;-60
2023/12/16 00:46:17;;;;;;;;;17.00;17.00;;;;;14.54;100.00;103517.59;2088383;28;44762;-59
2023/12/16 00:47:17;;;;;;;;;17.25;16.75;;;;;14.53;100.00;103514.91;2088615;28;44994;-58
2023/12/16 00:48:18;;;;;;;;;14.67;14.67;;;;;14.52;100.00;103518.47;2087006;28;44780;-59
2023/12/16 00:49:18;;;;;;;;;17.25;16.00;;;;;14.51;100.00;103519.38;2085996;28;44910;-59
2023/12/16 00:50:18;;;;;;;;;17.00;16.75;;;;;14.49;100.00;103524.69;2087388;28;45040;-58
2023/12/16 00:51:22;;;;;;;;;20.25;15.25;;;;;14.52;100.00;103518.47;2088186;28;44976;-58
2023/12/16 00:52:22;;;;;;;;;15.60;14.40;;;;;14.50;100.00;103518.47;2085897;28;44897;-60
2023/12/16 00:53:22;;;;;;;;;14.50;12.50;;;;;14.50;100.00;103517.56;2088044;28;44960;-59
2023/12/16 00:54:23;;;;;;;;;16.00;16.00;;;;;14.51;100.00;103511.34;2087269;28;45048;-60
2023/12/16 00:55:24;;;;;;;;;17.00;14.67;;;;;14.50;100.00;103513.13;2078352;28;44973;-60
2023/12/16 00:56:24;;;;;;;;;13.33;13.33;;;;;14.50;100.00;103509.56;2071935;28;44992;-59
2023/12/16 00:57:25;;;;;;;;;16.75;14.00;;;;;14.51;100.00;103522.03;2088103;28;44819;-60
2023/12/16 00:58:25;;;;;;;;;18.00;15.67;;;;;14.50;100.00;103520.25;2087618;28;44783;-59
2023/12/16 00:59:26;;;;;;;;;19.00;13.67;;;;;14.50;100.00;103522.91;2084986;28;44840;-59
2023/12/16 01:00:26;;;;;;;;;15.00;15.00;;;;;14.48;100.00;103517.53;2087074;28;44975;-60
2023/12/16 01:01:26;;;;;;;;;18.33;17.00;;;;;14.49;100.00;103521.13;2088215;28;45028;-58
2023/12/16 01:02:27;;;;;;;;;16.00;15.00;;;;;14.48;100.00;103522.88;2088201;28;44740;-60
2023/12/16 01:03:27;;;;;;;;;20.00;18.00;;;;;14.47;100.00;103517.53;2087839;28;44897;-60
2023/12/16 01:04:27;;;;;;;;;17.75;17.50;;;;;14.47;100.00;103515.75;2088494;28;44870;-60
2023/12/16 01:05:28;;;;;;;;;18.00;18.00;;;;;14.47;100.00;103517.53;2087697;28;44920;-59
2023/12/16 01:06:28;;;;;;;;;14.00;12.33;;;;;14.45;100.00;103528.22;2086497;28;44948;-60
2023/12/16 01:07:29;;;;;;;;;21.50;18.25;;;;;14.45;100.00;103519.31;2088186;28;44880;-61
2023/12/16 01:08:29;;;;;;;;;15.33;15.33;;;;;14.43;100.00;103520.16;2087812;28;44763;-56
2023/12/16 01:09:29;;;;;;;;;17.00;16.00;;;;;14.43;100.00;103520.16;2087885;28;44770;-59
2023/12/16 01:10:29;;;;;;;;;17.00;15.67;;;;;14.42;100.00;103522.81;2086660;28;44746;-61
2023/12/16 01:11:30;;;;;;;;;16.00;13.67;;;;;14.41;100.00;103521.03;2088035;28;44936;-60
2023/12/16 01:12:30;;;;;;;;;16.25;16.00;;;;;14.42;100.00;103517.47;2084247;28;45032;-59
2023/12/16 01:13:31;;;;;;;;;18.75;18.25;;;;;14.41;100.00;103513.91;2078238;28;44941;-59
2023/12/16 01:14:31;;;;;;;;;21.50;18.25;;;;;14.43;100.00;103512.13;2079197;28;44926;-59
2023/12/16 01:15:31;;;;;;;;;19.00;16.00;;;;;14.42;100.00;103507.69;2087757;28;45018;-58
2023/12/16 01:16:32;;;;;;;;;15.75;14.00;;;;;14.42;100.00;103509.47;2087660;28;44890;-59
2023/12/16 01:17:33;;;;;;;;;18.75;17.00;;;;;14.41;100.00;103508.56;2087525;28;44834;-58
2023/12/16 01:18:33;;;;;;;;;18.75;17.75;;;;;14.45;100.00;103505.94;2088264;28;44888;-61
2023/12/16 01:19:33;;;;;;;;;19.00;17.50;;;;;14.42;100.00;103510.34;2088295;28;44909;-60
2023/12/16 01:20:34;;;;;;;;;17.25;16.50;;;;;14.43;100.00;103513.91;2087994;28;45265;-61
2023/12/16 01:21:43;;;;;;;;;18.00;16.25;;;;;14.45;100.00;103513.97;2087251;28;44890;-60
2023/12/16 01:22:43;;;;;;;;;17.00;17.00;;;;;14.43;100.00;103506.78;2085741;28;44918;-58
2023/12/16 01:23:44;;;;;;;;;17.33;16.00;;;;;14.44;100.00;103505.06;2079620;28;44857;-61
2023/12/16 01:24:44;;;;;;;;;13.75;13.75;;;;;14.42;100.00;103502.34;2085964;28;44923;-60
2023/12/16 01:25:45;;;;;;;;;20.75;18.25;;;;;14.42;100.00;103507.69;2087367;28;44822;-60
2023/12/16 01:26:45;;;;;;;;;14.50;14.25;;;;;14.41;100.00;103503.22;2085428;28;44874;-62
2023/12/16 01:27:47;;;;;;;;;15.75;13.75;;;;;14.41;100.00;103497.00;2088080;28;44858;-58
2023/12/16 01:28:47;;;;;;;;;18.60;18.60;;;;;14.39;100.00;103498.75;2087547;28;45082;-61
2023/12/16 01:29:47;;;;;;;;;35.75;33.00;;;;;14.39;100.00;103502.31;2089228;28;44967;-61
2023/12/16 01:30:48;;;;;;;;;38.75;33.00;;;;;14.40;100.00;103508.56;2087685;28;46005;-60
2023/12/16 01:31:48;;;;;;;;;44.00;36.25;;;;;14.41;100.00;103497.88;2089292;28;44873;-60
2023/12/16 01:32:48;;;;;;;;;45.75;39.00;;;;;14.43;100.00;103504.13;2088939;28;44857;-59
2023/12/16 01:33:49;;;;;;;;;32.00;30.25;;;;;14.45;100.00;103511.28;2087430;28;44849;-59
2023/12/16 01:34:49;;;;;;;;;34.25;30.50;;;;;14.45;100.00;103514.84;2088949;28;44945;-61
2023/12/16 01:35:49;;;;;;;;;30.50;28.25;;;;;14.46;100.00;103515.75;2088375;28;45250;-61
2023/12/16 01:36:50;;;;;;;;;0.50;0.50;;;;;14.45;100.00;103511.28;2089045;28;44926;-61
2023/12/16 01:37:50;;;;;;;;;20.50;18.50;;;;;14.44;100.00;103513.06;2089279;28;44851;-62
2023/12/16 01:38:50;;;;;;;;;16.75;16.00;;;;;14.42;100.00;103515.69;2088936;28;44882;-60
2023/12/16 01:39:51;;;;;;;;;17.50;17.00;;;;;14.39;100.00;103510.34;2087908;28;44979;-61
2023/12/16 01:40:51;;;;;;;;;17.25;17.25;;;;;14.38;100.00;103515.69;2088220;28;45030;-59
2023/12/16 01:41:51;;;;;;;;;18.00;17.50;;;;;14.37;100.00;103517.47;2081412;28;45446;-59
2023/12/16 01:42:54;;;;;;;;;21.50;17.75;;;;;14.37;100.00;103517.47;2087836;28;44803;-59
2023/12/16 01:43:55;;;;;;;;;15.80;15.00;;;;;14.35;100.00;103519.19;2087012;28;44933;-58
2023/12/16 01:44:55;;;;;;;;;23.75;18.00;;;;;14.35;100.00;103510.28;2090038;28;44842;-59
2023/12/16 01:46:01;;;;;;;;;17.25;17.25;;;;;14.35;100.00;103510.28;2089059;28;44909;-60
2023/12/16 01:47:02;;;;;;;;;18.40;17.80;;;;;14.35;100.00;103520.97;2088173;28;44775;-58
2023/12/16 01:48:04;;;;;;;;;15.00;15.00;;;;;14.32;100.00;103516.50;2089274;28;45175;-58
2023/12/16 01:49:04;;;;;;;;;22.00;19.20;;;;;14.31;100.00;103516.50;2088462;28;45079;-58
2023/12/16 01:50:06;;;;;;;;;24.00;23.00;;;;;14.28;100.00;103514.72;2089558;28;45090;-55
2023/12/16 01:51:06;;;;;;;;;20.80;18.20;;;;;14.30;100.00;103520.94;2089365;28;45035;-60
2023/12/16 01:52:08;;;;;;;;;22.00;20.25;;;;;14.30;100.00;103526.28;2089137;28;44935;-57
2023/12/16 01:53:09;;;;;;;;;19.80;19.00;;;;;14.30;100.00;103515.59;2088817;28;44829;-59
2023/12/16 01:54:10;;;;;;;;;19.50;18.25;;;;;14.28;100.00;103522.72;2088737;28;44846;-59
2023/12/16 01:55:12;;;;;;;;;16.60;16.00;;;;;14.30;100.00;103525.41;2089014;28;44810;-60
2023/12/16 01:56:12;;;;;;;;;18.00;17.00;;;;;14.29;100.00;103524.50;2088639;28;45202;-60
2023/12/16 01:57:13;;;;;;;;;19.25;18.00;;;;;14.28;100.00;103522.72;2088479;28;44925;-58
2023/12/16 01:58:13;;;;;;;;;17.75;17.75;;;;;14.27;100.00;103528.94;2082149;28;45204;-58
2023/12/16 01:59:14;;;;;;;;;16.50;15.50;;;;;14.27;100.00;103531.63;2088507;28;44827;-57
2023/12/16 02:00:15;;;;;;;;;16.25;16.25;;;;;14.29;100.00;103531.63;2086817;28;45041;-62
2023/12/16 02:01:16;;;;;;;;;15.00;15.00;;;;;14.27;100.00;103530.72;2088824;28;44844;-59
2023/12/16 02:02:18;;;;;;;;;17.40;17.40;;;;;14.28;100.00;103532.50;2088434;28;44854;-59
2023/12/16 02:03:20;;;;;;;;;20.40;18.00;;;;;14.27;100.00;103531.63;2088966;28;44916;-60
2023/12/16 02:04:20;;;;;;;;;18.00;17.20;;;;;14.26;100.00;103534.28;2089324;28;44964;-60
2023/12/16 02:05:21;;;;;;;;;18.33;17.33;;;;;14.26;100.00;103536.97;2095876;28;44929;-59
2023/12/16 02:06:21;;;;;;;;;21.25;20.25;;;;;14.23;100.00;103531.56;2094725;28;45084;-63
2023/12/16 02:07:21;;;;;;;;;18.50;16.75;;;;;14.27;100.00;103536.06;2089290;28;44881;-59
2023/12/16 02:08:22;;;;;;;;;19.50;18.25;;;;;14.27;100.00;103530.72;2088677;28;44936;-58
2023/12/16 02:09:23;;;;;;;;;17.75;17.25;;;;;14.27;100.00;103536.97;2089483;28;44874;-58
2023/12/16 02:10:24;;;;;;;;;16.25;15.00;;;;;14.26;100.00;103534.28;2088979;28;44864;-58
2023/12/16 02:11:24;;;;;;;;;20.25;19.00;;;;;14.25;100.00;103528.06;2088126;28;44881;-59
2023/12/16 02:12:27;;;;;;;;;19.00;18.25;;;;;14.25;100.00;103533.41;2089998;28;44862;-59
2023/12/16 02:13:28;;;;;;;;;14.40;14.00;;;;;14.24;100.00;103536.94;2089430;28;45035;-59
2023/12/16 02:14:28;;;;;;;;;17.00;17.00;;;;;14.25;100.00;103537.84;2089773;28;44927;-60
2023/12/16 02:15:28;;;;;;;;;19.25;17.25;;;;;14.25;100.00;103540.50;2088749;28;44897;-59
2023/12/16 02:16:29;;;;;;;;;21.00;15.25;;;;;14.24;100.00;103539.63;2087997;28;44893;-61
2023/12/16 02:17:29;;;;;;;;;17.67;17.00;;;;;14.25;100.00;103537.84;2088962;28;44823;-60
2023/12/16 02:18:30;;;;;;;;;16.00;15.33;;;;;14.25;100.00;103537.84;2088732;28;44927;-59
2023/12/16 02:19:32;;;;;;;;;17.33;16.00;;;;;14.25;100.00;103536.06;2089135;28;45160;-60
2023/12/16 02:20:33;;;;;;;;;11.50;11.50;;;;;14.25;100.00;103529.81;2088034;28;44926;-59
2023/12/16 02:21:33;;;;;;;;;16.33;14.67;;;;;14.25;100.00;103535.16;2087801;28;44985;-60
2023/12/16 02:22:33;;;;;;;;;16.33;15.00;;;;;14.25;100.00;103536.06;2087353;28;44962;-60
2023/12/16 02:23:37;;;;;;;;;11.00;11.00;;;;;14.24;100.00;103528.94;2088692;28;45028;-60
2023/12/16 02:24:41;;;;;;;;;18.00;14.00;;;;;14.23;100.00;103535.16;2088467;28;44840;-60
2023/12/16 02:25:42;;;;;;;;;17.25;17.25;;;;;14.22;100.00;103528.00;2088955;28;45081;-62
2023/12/16 02:26:43;;;;;;;;;18.25;16.00;;;;;14.22;100.00;103527.09;2088677;28;44901;-60
2023/12/16 02:27:44;;;;;;;;;18.33;17.00;;;;;14.22;100.00;103522.66;2088865;28;44616;-60
2023/12/16 02:28:45;;;;;;;;;17.00;15.00;;;;;14.19;100.00;103521.75;2089543;28;44895;-60
2023/12/16 02:29:45;;;;;;;;;15.33;14.00;;;;;14.17;100.00;103527.06;2088794;28;44970;-61
2023/12/16 02:30:45;;;;;;;;;15.67;14.67;;;;;14.17;100.00;103524.41;2088820;28;44958;-59
2023/12/16 02:31:46;;;;;;;;;16.67;16.00;;;;;14.16;100.00;103522.63;2088208;28;44917;-59
2023/12/16 02:32:47;;;;;;;;;19.50;16.00;;;;;14.15;100.00;103526.19;2087033;28;45128;-59
2023/12/16 02:33:47;;;;;;;;;13.25;13.25;;;;;14.13;100.00;103530.63;2086685;28;44907;-59
2023/12/16 02:34:48;;;;;;;;;17.33;17.00;;;;;14.14;100.00;103524.41;2087054;28;45108;-61
2023/12/16 02:35:48;;;;;;;;;17.00;16.00;;;;;14.13;100.00;103523.50;2086785;28;45761;-58
2023/12/16 02:36:49;;;;;;;;;17.75;17.00;;;;;14.14;100.00;103524.41;2088468;28;45025;-60
2023/12/16 02:37:49;;;;;;;;;20.00;19.25;;;;;14.14;100.00;103527.97;2088524;28;44914;-61
2023/12/16 02:38:49;;;;;;;;;18.25;17.50;;;;;14.14;100.00;103524.41;2087795;28;45558;-59
2023/12/16 02:39:50;;;;;;;;;15.33;15.33;;;;;14.13;100.00;103527.94;2089054;28;45115;-59
2023/12/16 02:40:50;;;;;;;;;17.25;15.75;;;;;14.13;100.00;103534.19;2095773;28;44963;-61
2023/12/16 02:41:51;;;;;;;;;17.25;16.00;;;;;14.12;100.00;103524.38;2096818;28;44877;-59
2023/12/16 02:42:51;;;;;;;;;16.50;15.75;;;;;14.12;100.00;103536.84;2088577;28;44822;-61
2023/12/16 02:43:51;;;;;;;;;16.00;15.00;;;;;14.11;100.00;103537.72;2088828;28;45185;-61
2023/12/16 02:44:52;;;;;;;;;18.00;17.00;;;;;14.10;100.00;103533.25;2088536;28;45001;-60
2023/12/16 02:45:52;;;;;;;;;1.50;0.00;;;;;14.10;100.00;103538.56;2088947;28;44858;-58
2023/12/16 02:46:52;;;;;;;;;18.25;16.25;;;;;14.10;100.00;103533.25;2088782;28;45396;-61
2023/12/16 02:47:53;;;;;;;;;15.33;15.00;;;;;14.08;100.00;103525.22;2087556;28;44824;-64
2023/12/16 02:48:53;;;;;;;;;16.00;14.67;;;;;14.10;100.00;103534.16;2087644;28;44984;-61
2023/12/16 02:49:53;;;;;;;;;15.67;15.67;;;;;14.10;100.00;103534.16;2089374;28;44887;-61
2023/12/16 02:50:54;;;;;;;;;18.00;15.67;;;;;14.09;100.00;103534.13;2088935;28;45195;-65
2023/12/16 02:51:54;;;;;;;;;17.00;14.00;;;;;14.10;100.00;103544.84;2089589;28;44877;-60
2023/12/16 02:52:54;;;;;;;;;16.00;13.33;;;;;14.11;100.00;103543.97;2081277;28;44843;-60
2023/12/16 02:53:55;;;;;;;;;16.00;14.75;;;;;14.10;100.00;103539.50;2084102;28;44850;-62
2023/12/16 02:54:55;;;;;;;;;15.00;15.00;;;;;14.09;100.00;103540.34;2080576;28;44752;-60
2023/12/16 02:55:56;;;;;;;;;16.00;14.67;;;;;14.09;100.00;103542.13;2088808;28;45358;-60
2023/12/16 02:56:56;;;;;;;;;13.00;13.00;;;;;14.08;100.00;103543.00;2087166;28;44898;-60
2023/12/16 02:57:56;;;;;;;;;15.67;15.00;;;;;14.06;100.00;103545.69;2087801;28;44902;-60
2023/12/16 02:58:57;;;;;;;;;15.00;15.00;;;;;14.06;100.00;103544.78;2088635;28;45014;-60
2023/12/16 02:59:57;;;;;;;;;15.00;15.00;;;;;14.08;100.00;103548.34;2088630;28;44931;-60
2023/12/16 03:00:58;;;;;;;;;13.67;12.67;;;;;14.08;100.00;103543.00;2088120;28;44817;-60
2023/12/16 03:01:59;;;;;;;;;17.40;16.00;;;;;14.06;100.00;103544.78;2078459;28;45046;-61
2023/12/16 03:02:59;;;;;;;;;16.50;15.25;;;;;14.04;100.00;103542.09;2079512;28;45225;-61
2023/12/16 03:03:59;;;;;;;;;16.25;15.25;;;;;14.03;100.00;103543.00;2079567;28;45581;-59
2023/12/16 03:05:00;;;;;;;;;15.50;14.00;;;;;14.02;100.00;103548.31;2079403;28;44922;-58
2023/12/16 03:06:07;;;;;;;;;14.00;13.33;;;;;14.01;100.00;103550.09;2079470;28;44996;-60
2023/12/16 03:07:08;;;;;;;;;14.75;14.25;;;;;14.01;100.00;103543.88;2079746;28;45311;-58
2023/12/16 03:08:08;;;;;;;;;14.00;13.00;;;;;14.00;100.00;103547.41;2078427;28;45383;-59
2023/12/16 03:09:09;;;;;;;;;16.00;13.00;;;;;13.99;100.00;103554.53;2079367;28;46129;-58
2023/12/16 03:10:09;;;;;;;;;17.25;17.25;;;;;14.00;100.00;103548.31;2079075;28;44883;-60
2023/12/16 03:11:09;;;;;;;;;17.00;15.33;;;;;13.98;100.00;103555.41;2079585;28;45102;-60
2023/12/16 03:12:10;;;;;;;;;14.33;14.00;;;;;13.99;100.00;103551.84;2079239;28;45164;-60
2023/12/16 03:13:10;;;;;;;;;16.00;12.00;;;;;13.99;100.00;103554.53;2078411;28;45699;-59
2023/12/16 03:14:11;;;;;;;;;12.33;12.33;;;;;14.00;100.00;103555.44;2079425;28;44929;-57
2023/12/16 03:15:11;;;;;;;;;13.00;13.00;;;;;14.00;100.00;103555.44;2079688;28;45228;-59
2023/12/16 03:16:11;;;;;;;;;16.75;16.75;;;;;13.99;100.00;103562.53;2079209;28;45099;-59
2023/12/16 03:17:12;;;;;;;;;16.00;14.33;;;;;13.99;100.00;103567.88;2079812;28;44955;-60
2023/12/16 03:18:13;;;;;;;;;15.25;15.00;;;;;13.97;100.00;103569.63;2079275;28;45095;-58
2023/12/16 03:19:13;;;;;;;;;10.67;10.67;;;;;13.96;100.00;103565.16;2079651;28;45064;-59
2023/12/16 03:20:13;;;;;;;;;14.00;13.00;;;;;13.98;100.00;103567.88;2071149;28;44966;-58
2023/12/16 03:21:14;;;;;;;;;16.25;12.00;;;;;13.98;100.00;103573.22;2061602;28;45320;-57
2023/12/16 03:22:14;;;;;;;;;13.00;12.67;;;;;13.99;100.00;103567.00;2062750;28;44831;-59
2023/12/16 03:23:15;;;;;;;;;16.33;14.67;;;;;13.98;100.00;103570.53;2071090;28;45083;-58
2023/12/16 03:24:15;;;;;;;;;16.00;15.75;;;;;13.98;100.00;103571.44;2077286;28;45294;-59
2023/12/16 03:25:15;;;;;;;;;17.25;15.75;;;;;13.97;100.00;103563.38;2071391;28;44902;-59
2023/12/16 03:26:16;;;;;;;;;15.67;15.67;;;;;13.95;100.00;103565.16;2077784;28;45219;-59
2023/12/16 03:27:16;;;;;;;;;16.67;14.00;;;;;13.92;100.00;103560.69;2078737;28;44931;-59
2023/12/16 03:28:16;;;;;;;;;14.00;13.00;;;;;13.93;100.00;103567.81;2079175;28;44955;-57
2023/12/16 03:29:17;;;;;;;;;14.00;14.00;;;;;13.93;100.00;103569.59;2079648;28;44878;-58
2023/12/16 03:30:17;;;;;;;;;14.00;14.00;;;;;13.93;100.00;103570.47;2079720;28;44919;-59
2023/12/16 03:31:18;;;;;;;;;14.50;14.50;;;;;13.93;100.00;103573.16;2079038;28;45242;-59
2023/12/16 03:32:18;;;;;;;;;14.33;14.33;;;;;13.94;100.00;103571.38;2079241;28;45082;-58
2023/12/16 03:33:18;;;;;;;;;14.33;14.33;;;;;13.95;100.00;103575.81;2079647;28;45009;-58
2023/12/16 03:34:18;;;;;;;;;18.50;17.00;;;;;13.96;100.00;103574.94;2087354;28;44843;-58
2023/12/16 03:35:19;;;;;;;;;14.67;14.67;;;;;13.96;100.00;103573.16;2088689;28;44929;-58
2023/12/16 03:36:19;;;;;;;;;14.33;14.00;;;;;13.98;100.00;103576.78;2087190;28;45047;-58
2023/12/16 03:37:19;;;;;;;;;15.50;14.25;;;;;13.98;100.00;103566.09;2088185;28;45498;-58
2023/12/16 03:38:20;;;;;;;;;16.75;15.50;;;;;13.97;100.00;103574.06;2088560;28;45061;-58
2023/12/16 03:39:20;;;;;;;;;11.33;9.67;;;;;13.96;100.00;103572.28;2086893;28;44871;-58
2023/12/16 03:40:20;;;;;;;;;14.75;14.75;;;;;13.94;100.00;103566.91;2088063;28;45092;-59
2023/12/16 03:41:21;;;;;;;;;15.00;15.00;;;;;13.93;100.00;103565.13;2088761;28;44878;-56
2023/12/16 03:42:21;;;;;;;;;15.00;15.00;;;;;13.93;100.00;103565.13;2087379;28;45086;-58
2023/12/16 03:43:21;;;;;;;;;17.33;16.67;;;;;13.92;100.00;103566.03;2088064;28;44932;-58
2023/12/16 03:44:22;;;;;;;;;18.00;16.25;;;;;13.92;100.00;103559.78;2086064;28;45165;-57
2023/12/16 03:45:23;;;;;;;;;19.00;19.00;;;;;13.92;100.00;103558.00;2086889;28;44981;-59
2023/12/16 03:46:23;;;;;;;;;14.00;14.00;;;;;13.92;100.00;103554.44;2088514;28;44844;-59
2023/12/16 03:47:23;;;;;;;;;14.33;13.00;;;;;13.92;100.00;103558.00;2087205;28;45152;-60
2023/12/16 03:48:24;;;;;;;;;16.75;15.75;;;;;13.92;100.00;103560.69;2087873;28;44935;-58
2023/12/16 03:49:24;;;;;;;;;17.50;16.00;;;;;13.93;100.00;103550.91;2088657;28;45014;-58
2023/12/16 03:50:25;;;;;;;;;15.67;15.67;;;;;13.94;100.00;103553.56;2088262;28;44988;-58
2023/12/16 03:51:25;;;;;;;;;18.25;14.50;;;;;13.93;100.00;103550.91;2087298;28;45027;-59
2023/12/16 03:52:25;;;;;;;;;16.33;15.33;;;;;13.94;100.00;103555.34;2085554;28;45028;-59
2023/12/16 03:53:26;;;;;;;;;15.75;15.75;;;;;13.96;100.00;103559.81;2088658;28;44781;-60
2023/12/16 03:54:26;;;;;;;;;18.75;16.75;;;;;13.96;100.00;103551.81;2088513;28;44928;-59
2023/12/16 03:55:27;;;;;;;;;17.33;17.00;;;;;13.96;100.00;103551.81;2085352;28;44876;-60
2023/12/16 03:56:27;;;;;;;;;15.00;15.00;;;;;13.97;100.00;103555.38;2087437;28;44986;-59
2023/12/16 03:57:29;;;;;;;;;16.00;14.50;;;;;13.97;100.00;103553.59;2087365;28;44904;-60
2023/12/16 03:58:30;;;;;;;;;15.25;13.50;;;;;13.98;100.00;103554.53;2088536;28;44821;-60
2023/12/16 03:59:30;;;;;;;;;12.25;12.25;;;;;13.98;100.00;103550.06;2088421;28;44894;-63
2023/12/16 04:00:30;;;;;;;;;22.00;16.75;;;;;13.98;100.00;103554.53;2088145;28;45243;-59
2023/12/16 04:01:31;;;;;;;;;16.50;16.50;;;;;13.97;100.00;103558.03;2088332;28;44862;-60
2023/12/16 04:02:31;;;;;;;;;17.00;16.25;;;;;13.98;100.00;103559.88;2088381;28;45166;-60
2023/12/16 04:03:31;;;;;;;;;16.50;15.00;;;;;13.99;100.00;103556.31;2087706;28;45083;-60
2023/12/16 04:04:32;;;;;;;;;16.25;16.25;;;;;14.00;100.00;103550.09;2088265;28;44873;-58
2023/12/16 04:05:34;;;;;;;;;15.80;15.60;;;;;13.99;100.00;103548.28;2088050;28;44853;-58
2023/12/16 04:06:34;;;;;;;;;18.00;16.00;;;;;13.99;100.00;103546.53;2085575;28;44838;-59
2023/12/16 04:07:35;;;;;;;;;16.00;16.00;;;;;14.02;100.00;103548.31;2088865;28;44962;-57
2023/12/16 04:08:35;;;;;;;;;14.50;13.75;;;;;14.02;100.00;103551.00;2088333;28;44802;-59
2023/12/16 04:09:36;;;;;;;;;15.00;15.00;;;;;14.03;100.00;103552.78;2088618;28;44775;-58
2023/12/16 04:10:36;;;;;;;;;15.67;14.67;;;;;14.03;100.00;103552.78;2088529;28;44916;-58
2023/12/16 04:11:36;;;;;;;;;12.33;11.33;;;;;14.02;100.00;103546.53;2086993;28;45053;-57
2023/12/16 04:12:37;;;;;;;;;17.00;15.25;;;;;14.04;100.00;103551.91;2084593;28;45067;-58
2023/12/16 04:13:37;;;;;;;;;13.00;13.00;;;;;14.05;100.00;103553.69;2080896;28;45058;-56
2023/12/16 04:14:40;;;;;;;;;14.00;13.33;;;;;14.06;100.00;103547.44;2088127;28;44958;-57
2023/12/16 04:15:41;;;;;;;;;15.25;14.00;;;;;14.06;100.00;103556.34;2087611;28;44965;-58
2023/12/16 04:16:41;;;;;;;;;15.00;13.67;;;;;14.06;100.00;103548.34;2087433;28;45051;-59
2023/12/16 04:17:41;;;;;;;;;16.33;16.33;;;;;14.06;100.00;103548.34;2085315;28;44896;-60
2023/12/16 04:18:42;;;;;;;;;14.67;14.00;;;;;14.07;100.00;103546.56;2088213;28;44980;-58
2023/12/16 04:19:50;;;;;;;;;15.00;14.33;;;;;14.08;100.00;103545.69;2088454;28;44868;-60
2023/12/16 04:20:50;;;;;;;;;14.00;14.00;;;;;14.09;100.00;103544.81;2085025;28;45107;-58
2023/12/16 04:21:50;;;;;;;;;13.00;10.33;;;;;14.08;100.00;103543.91;2088725;28;44856;-58
2023/12/16 04:22:51;;;;;;;;;15.50;14.50;;;;;14.10;100.00;103546.59;2087483;28;45043;-59
2023/12/16 04:23:51;;;;;;;;;16.00;14.67;;;;;14.11;100.00;103548.41;2087800;28;46476;-59
2023/12/16 04:24:57;;;;;;;;;15.33;15.00;;;;;14.10;100.00;103541.25;2087838;28;44861;-57
2023/12/16 04:25:58;;;;;;;;;14.50;13.00;;;;;14.11;100.00;103549.31;2087716;28;44952;-59
2023/12/16 04:26:58;;;;;;;;;15.33;12.67;;;;;14.11;100.00;103541.28;2087864;28;44889;-58
2023/12/16 04:27:58;;;;;;;;;16.00;14.00;;;;;14.11;100.00;103540.41;2088775;28;44921;-60
2023/12/16 04:28:59;;;;;;;;;13.67;13.67;;;;;14.11;100.00;103546.63;2088320;28;45104;-59
2023/12/16 04:29:59;;;;;;;;;12.00;12.00;;;;;14.13;100.00;103535.97;2087152;28;45059;-59
2023/12/16 04:30:59;;;;;;;;;12.00;12.00;;;;;14.12;100.00;103543.09;2085737;28;44835;-58
2023/12/16 04:32:00;;;;;;;;;12.67;11.00;;;;;14.13;100.00;103541.31;2085303;28;44812;-59
2023/12/16 04:33:00;;;;;;;;;11.67;11.00;;;;;14.13;100.00;103542.19;2087509;28;44940;-58